createdAt,value
2022-11-26T00:02:33.918Z,5.02
2022-11-26T00:13:01.778Z,4.96
2022-11-26T00:23:30.101Z,4.64
2022-11-26T00:33:57.696Z,4.54
2022-11-26T00:44:26.720Z,4.57
2022-11-26T00:54:54.211Z,4.75
2022-11-26T01:05:22.830Z,4.87
2022-11-26T01:15:48.796Z,4.87
2022-11-26T01:26:21.755Z,4.81
2022-11-26T01:36:49.075Z,4.81
2022-11-26T01:47:25.576Z,4.84
2022-11-26T01:57:53.750Z,4.87
2022-11-26T02:08:21.577Z,4.79
2022-11-26T02:18:59.781Z,4.63
2022-11-26T02:29:31.985Z,4.47
2022-11-26T02:40:00.572Z,4.34
2022-11-26T02:50:32.104Z,4.26
2022-11-26T03:01:00.987Z,4.19
2022-11-26T03:11:29.527Z,4.10
2022-11-26T03:21:56.900Z,4.31
2022-11-26T03:32:24.238Z,4.28
2022-11-26T03:42:51.564Z,4.20
2022-11-26T03:53:18.858Z,4.25
2022-11-26T04:03:46.154Z,4.30
2022-11-26T04:14:13.572Z,4.18
2022-11-26T04:24:41.196Z,3.86
2022-11-26T04:35:10.303Z,3.54
2022-11-26T04:45:37.568Z,3.48
2022-11-26T04:56:05.041Z,3.51
2022-11-26T05:06:32.550Z,3.74
2022-11-26T05:16:59.832Z,3.88
2022-11-26T05:27:27.139Z,3.86
2022-11-26T05:37:54.473Z,4.07
2022-11-26T05:48:21.789Z,4.22
2022-11-26T05:58:49.073Z,4.39
2022-11-26T06:09:16.760Z,4.53
2022-11-26T06:19:44.180Z,4.64
2022-11-26T06:30:14.103Z,4.51
2022-11-26T06:40:41.349Z,4.26
2022-11-26T06:51:10.807Z,4.07
2022-11-26T07:01:38.194Z,4.37
2022-11-26T07:12:05.846Z,4.78
2022-11-26T07:22:33.147Z,4.99
2022-11-26T07:33:00.815Z,5.21
2022-11-26T07:43:28.073Z,5.45
2022-11-26T07:53:56.275Z,5.49
2022-11-26T08:04:23.554Z,5.08
2022-11-26T08:14:50.909Z,5.29
2022-11-26T08:25:18.842Z,5.73
2022-11-26T08:36:06.219Z,5.71
2022-11-26T08:46:33.898Z,5.57
2022-11-26T08:57:01.523Z,5.90
2022-11-26T09:07:28.998Z,6.06
2022-11-26T09:17:56.456Z,6.09
2022-11-26T09:28:23.851Z,6.12
2022-11-26T09:38:54.296Z,6.13
2022-11-26T09:49:23.003Z,5.96
2022-11-26T09:59:50.589Z,5.97
2022-11-26T10:10:23.893Z,6.01
2022-11-26T10:21:05.905Z,6.06
2022-11-26T10:31:34.956Z,6.17
2022-11-26T10:42:12.395Z,6.24
2022-11-26T10:52:40.715Z,6.32
2022-11-26T11:03:28.741Z,6.33
2022-11-26T11:14:27.869Z,6.41
2022-11-26T11:25:02.620Z,6.53
2022-11-26T11:35:31.651Z,6.63
2022-11-26T11:46:24.284Z,6.61
2022-11-26T11:57:00.639Z,6.63
2022-11-26T12:07:36.166Z,6.71
2022-11-26T12:18:14.577Z,6.69
2022-11-26T12:28:51.631Z,6.73
2022-11-26T12:39:28.436Z,6.79
2022-11-26T12:50:14.032Z,7.01
2022-11-26T13:00:41.636Z,7.13
2022-11-26T13:11:23.525Z,7.21
2022-11-26T13:22:17.610Z,7.44
2022-11-26T13:33:25.495Z,7.62
2022-11-26T13:44:18.671Z,7.76
2022-11-26T13:54:52.597Z,7.95
2022-11-26T14:05:20.030Z,8.00
2022-11-26T14:16:02.495Z,7.95
2022-11-26T14:26:34.438Z,7.71
2022-11-26T14:37:03.215Z,7.56
2022-11-26T14:47:30.327Z,7.40
2022-11-26T14:58:07.600Z,7.32
2022-11-26T15:08:36.375Z,7.15
2022-11-26T15:19:05.527Z,7.13
2022-11-26T15:29:35.525Z,7.28
2022-11-26T15:40:23.616Z,7.20
2022-11-26T15:50:54.516Z,7.23
2022-11-26T16:01:25.662Z,7.24
2022-11-26T16:12:01.354Z,7.22
2022-11-26T16:22:33.068Z,7.19
2022-11-26T16:33:00.326Z,7.09
2022-11-26T16:43:27.731Z,6.93
2022-11-26T16:53:55.035Z,6.86
2022-11-26T17:04:22.735Z,6.78
2022-11-26T17:14:50.222Z,6.88
2022-11-26T17:25:17.907Z,7.07
2022-11-26T17:35:45.216Z,7.17
2022-11-26T17:46:16.914Z,7.03
2022-11-26T17:56:44.230Z,6.82
2022-11-26T18:07:15.616Z,6.60
2022-11-26T18:17:48.224Z,6.51
2022-11-26T18:28:17.566Z,6.46
2022-11-26T18:38:44.957Z,6.46
2022-11-26T18:49:12.319Z,6.40
2022-11-26T18:59:40.539Z,6.41
2022-11-26T19:10:11.120Z,6.63
2022-11-26T19:20:38.601Z,6.77
2022-11-26T19:31:08.813Z,6.99
2022-11-26T19:41:36.436Z,7.14
2022-11-26T19:52:03.724Z,7.22
2022-11-26T20:02:31.103Z,7.35
2022-11-26T20:12:58.506Z,7.37
2022-11-26T20:23:25.818Z,7.49
2022-11-26T20:33:53.924Z,7.64
2022-11-26T20:44:23.246Z,7.71
2022-11-26T20:54:53.683Z,7.66
2022-11-26T21:05:23.232Z,7.69
2022-11-26T21:15:51.038Z,7.74
2022-11-26T21:26:21.290Z,7.71
2022-11-26T21:36:48.594Z,7.64
2022-11-26T21:47:17.489Z,7.50
2022-11-26T21:57:44.868Z,7.50
2022-11-26T22:08:12.258Z,7.59
2022-11-26T22:18:40.833Z,7.58
2022-11-26T22:29:08.690Z,7.65
2022-11-26T22:39:36.043Z,7.37
2022-11-26T22:50:04.026Z,6.58
2022-11-26T23:00:49.698Z,6.27
2022-11-26T23:11:19.737Z,6.02
2022-11-26T23:21:47.334Z,6.05
2022-11-26T23:32:14.580Z,6.53
2022-11-26T23:42:42.043Z,6.77
2022-11-26T23:53:09.972Z,6.80
